createdAt,value
2022-09-22T00:00:44.275Z,0
2022-09-22T00:01:45.337Z,0
2022-09-22T00:02:46.223Z,0
2022-09-22T00:03:47.427Z,0
2022-09-22T00:04:49.187Z,0
2022-09-22T00:05:50.244Z,0
2022-09-22T00:06:55.985Z,0
2022-09-22T00:07:57.203Z,0
2022-09-22T00:08:58.242Z,0
2022-09-22T00:09:59.202Z,0
2022-09-22T00:11:00.263Z,0
2022-09-22T00:12:01.420Z,0
2022-09-22T00:13:03.223Z,0
2022-09-22T00:14:04.223Z,0
2022-09-22T00:15:05.223Z,0
2022-09-22T00:16:06.332Z,0
2022-09-22T00:17:07.367Z,0
2022-09-22T00:18:08.223Z,0
2022-09-22T00:19:09.243Z,0
2022-09-22T00:20:10.307Z,0
2022-09-22T00:21:11.243Z,0
2022-09-22T00:22:12.243Z,0
2022-09-22T00:23:13.283Z,0
2022-09-22T00:24:14.284Z,0
2022-09-22T00:25:15.444Z,0
2022-09-22T00:26:17.285Z,0
2022-09-22T00:27:18.303Z,0
2022-09-22T00:28:19.263Z,0
2022-09-22T00:29:20.365Z,0
2022-09-22T00:30:21.318Z,0
2022-09-22T00:31:22.337Z,0
2022-09-22T00:32:23.284Z,0
2022-09-22T00:33:24.263Z,0
2022-09-22T00:34:25.203Z,0
2022-09-22T00:35:26.348Z,0
2022-09-22T00:36:27.283Z,0
2022-09-22T00:37:28.283Z,0
2022-09-22T00:38:29.244Z,0
2022-09-22T00:39:30.342Z,0
2022-09-22T00:40:32.282Z,0
2022-09-22T00:41:33.268Z,0
2022-09-22T00:42:34.323Z,0
2022-09-22T00:43:35.284Z,0
2022-09-22T00:44:36.266Z,0
2022-09-22T00:45:37.243Z,0
2022-09-22T00:46:38.472Z,0
2022-09-22T00:47:40.243Z,0
2022-09-22T00:48:41.230Z,0
2022-09-22T00:49:42.305Z,0
2022-09-22T00:50:43.348Z,0
2022-09-22T00:51:44.304Z,0
2022-09-22T00:52:45.203Z,0
2022-09-22T00:53:46.269Z,0
2022-09-22T00:54:47.363Z,0
2022-09-22T00:55:48.355Z,0
2022-09-22T00:56:49.292Z,0
2022-09-22T00:57:50.223Z,0
2022-09-22T00:58:51.203Z,0
2022-09-22T00:59:52.263Z,0
2022-09-22T01:03:45.233Z,0
2022-09-22T01:04:46.262Z,0
2022-09-22T01:05:47.232Z,0
2022-09-22T01:06:48.253Z,0
2022-09-22T01:07:49.295Z,0
2022-09-22T01:08:50.352Z,0
2022-09-22T01:09:52.245Z,0
2022-09-22T01:10:53.396Z,0
2022-09-22T01:11:55.233Z,0
2022-09-22T01:12:56.335Z,0
2022-09-22T01:13:57.313Z,0
2022-09-22T01:14:58.234Z,0
2022-09-22T01:15:59.309Z,0
2022-09-22T01:17:00.228Z,0
2022-09-22T01:18:01.413Z,0
2022-09-22T01:19:02.193Z,0
2022-09-22T01:20:03.313Z,0
2022-09-22T01:21:04.312Z,0
2022-09-22T01:22:05.254Z,0
2022-09-22T01:23:06.313Z,0
2022-09-22T01:24:07.356Z,0
2022-09-22T01:25:08.313Z,0
2022-09-22T01:26:09.253Z,0
2022-09-22T01:27:10.233Z,0
2022-09-22T01:28:11.296Z,0
2022-09-22T01:29:12.314Z,0
2022-09-22T01:30:13.286Z,0
2022-09-22T01:31:14.318Z,0
2022-09-22T01:32:15.513Z,0
2022-09-22T01:33:17.338Z,0
2022-09-22T01:34:18.313Z,0
2022-09-22T01:35:19.337Z,0
2022-09-22T01:36:20.298Z,0
2022-09-22T01:37:21.282Z,0
2022-09-22T01:38:22.294Z,0
2022-09-22T01:39:26.313Z,0
2022-09-22T01:40:27.356Z,0
2022-09-22T01:41:28.233Z,0
2022-09-22T01:42:29.253Z,0
2022-09-22T01:43:30.440Z,0
2022-09-22T01:44:32.414Z,0
2022-09-22T01:45:34.394Z,0
2022-09-22T01:46:35.285Z,0
2022-09-22T01:47:36.273Z,0
2022-09-22T01:48:37.374Z,0
2022-09-22T01:49:38.414Z,0
2022-09-22T01:50:40.433Z,0
2022-09-22T01:51:42.277Z,0
2022-09-22T01:52:43.374Z,0
2022-09-22T01:53:44.314Z,0
2022-09-22T01:54:45.314Z,0
2022-09-22T01:55:46.273Z,0
2022-09-22T01:56:47.253Z,0
2022-09-22T01:57:48.314Z,0
2022-09-22T01:58:49.333Z,0
2022-09-22T01:59:50.295Z,0
2022-09-22T02:00:51.501Z,0
2022-09-22T02:01:53.597Z,0
2022-09-22T02:02:55.520Z,0
2022-09-22T02:03:57.373Z,0
2022-09-22T02:04:58.273Z,0
2022-09-22T02:05:59.297Z,0
2022-09-22T02:07:00.341Z,0
2022-09-22T02:08:01.314Z,0
2022-09-22T02:09:02.273Z,0
2022-09-22T02:10:03.296Z,0
2022-09-22T02:11:04.297Z,0
2022-09-22T02:12:05.276Z,0
2022-09-22T02:13:06.314Z,0
2022-09-22T02:14:07.318Z,0
2022-09-22T02:15:08.354Z,0
2022-09-22T02:16:09.480Z,0
2022-09-22T02:17:11.380Z,0
2022-09-22T02:18:13.254Z,0
2022-09-22T02:19:14.452Z,0
2022-09-22T02:20:16.293Z,0
2022-09-22T02:21:17.434Z,0
2022-09-22T02:22:18.297Z,0
2022-09-22T02:23:19.253Z,0
2022-09-22T02:24:20.313Z,0
2022-09-22T02:25:21.433Z,0
2022-09-22T02:26:22.373Z,0
2022-09-22T02:27:23.273Z,0
2022-09-22T02:28:24.267Z,0
2022-09-22T02:29:25.256Z,0
2022-09-22T02:30:26.293Z,0
2022-09-22T02:31:28.028Z,0
2022-09-22T02:32:29.393Z,0
2022-09-22T02:33:34.895Z,0
2022-09-22T02:34:33.353Z,0
2022-09-22T02:35:34.298Z,0
2022-09-22T02:36:35.422Z,0
2022-09-22T02:37:36.370Z,0
2022-09-22T02:38:37.393Z,0
2022-09-22T02:39:38.253Z,0
2022-09-22T02:40:39.392Z,0
2022-09-22T02:41:40.333Z,0
2022-09-22T02:42:41.313Z,0
2022-09-22T02:43:42.336Z,0
2022-09-22T02:44:43.354Z,0
2022-09-22T02:45:44.314Z,0
2022-09-22T02:46:45.356Z,0
2022-09-22T02:47:46.313Z,0
2022-09-22T02:48:47.399Z,0
2022-09-22T02:49:48.353Z,0
2022-09-22T02:50:49.274Z,0
2022-09-22T02:51:50.233Z,0
2022-09-22T02:52:51.339Z,0
2022-09-22T02:53:52.313Z,0
2022-09-22T02:54:53.375Z,0
2022-09-22T02:55:54.313Z,0
2022-09-22T02:56:55.293Z,0
2022-09-22T02:57:56.433Z,0
2022-09-22T02:58:58.775Z,0
2022-09-22T02:59:59.333Z,0
2022-09-22T03:01:00.291Z,0
2022-09-22T03:02:01.615Z,0
2022-09-22T03:03:03.313Z,0
2022-09-22T03:04:04.317Z,0
2022-09-22T03:05:05.420Z,0
2022-09-22T03:06:06.353Z,0
2022-09-22T03:07:07.315Z,0
2022-09-22T03:08:08.282Z,0
2022-09-22T03:09:09.276Z,0
2022-09-22T03:10:10.576Z,0
2022-09-22T03:11:12.294Z,0
2022-09-22T03:12:13.319Z,0
2022-09-22T03:13:17.018Z,0
2022-09-22T03:14:16.316Z,0
2022-09-22T03:15:17.362Z,0
2022-09-22T03:16:18.398Z,0
2022-09-22T03:17:19.411Z,0
2022-09-22T03:18:20.353Z,0
2022-09-22T03:19:21.333Z,0
2022-09-22T03:20:22.413Z,0
2022-09-22T03:21:23.373Z,0
2022-09-22T03:22:24.293Z,0
2022-09-22T03:23:25.320Z,0
2022-09-22T03:24:26.313Z,0
2022-09-22T03:25:27.333Z,0
2022-09-22T03:26:28.293Z,0
2022-09-22T03:27:29.233Z,0
2022-09-22T03:28:30.276Z,0
2022-09-22T03:29:31.370Z,0
2022-09-22T03:30:32.643Z,0
2022-09-22T03:31:34.477Z,0
2022-09-22T03:32:35.314Z,0
2022-09-22T03:33:36.362Z,0
2022-09-22T03:34:37.454Z,0
2022-09-22T03:35:38.378Z,0
2022-09-22T03:36:39.334Z,0
2022-09-22T03:37:40.296Z,0
2022-09-22T03:38:41.377Z,0
2022-09-22T03:39:42.313Z,0
2022-09-22T03:40:43.478Z,0
2022-09-22T03:41:44.302Z,0
2022-09-22T03:42:45.393Z,0
2022-09-22T03:43:46.352Z,0
2022-09-22T03:44:47.422Z,0
2022-09-22T03:45:49.480Z,0
2022-09-22T03:46:50.354Z,0
2022-09-22T03:47:51.453Z,0
2022-09-22T03:48:53.454Z,0
2022-09-22T03:49:55.428Z,0
2022-09-22T03:50:56.514Z,0
2022-09-22T03:51:58.412Z,0
2022-09-22T03:52:59.361Z,0
2022-09-22T03:54:00.418Z,0
2022-09-22T03:55:01.371Z,0
2022-09-22T03:56:02.374Z,0
2022-09-22T03:57:03.354Z,0
2022-09-22T03:58:04.393Z,0
2022-09-22T03:59:05.334Z,0
2022-09-22T04:00:06.494Z,0
2022-09-22T04:01:08.594Z,0
2022-09-22T04:02:10.478Z,0
2022-09-22T04:03:12.413Z,0
2022-09-22T04:04:13.353Z,0
2022-09-22T04:05:14.345Z,0
2022-09-22T04:06:15.734Z,0
2022-09-22T04:07:17.434Z,0
2022-09-22T04:08:18.373Z,0
2022-09-22T04:09:19.338Z,0
2022-09-22T04:10:20.393Z,0
2022-09-22T04:11:21.353Z,0
2022-09-22T04:12:22.405Z,0
2022-09-22T04:13:23.394Z,0
2022-09-22T04:14:24.473Z,0
2022-09-22T04:15:26.574Z,0
2022-09-22T04:16:28.831Z,0
2022-09-22T04:17:30.553Z,0
2022-09-22T04:18:32.335Z,0
2022-09-22T04:19:33.373Z,0
2022-09-22T04:20:34.354Z,0
2022-09-22T04:21:35.311Z,0
2022-09-22T04:22:36.363Z,0
2022-09-22T04:23:37.394Z,0
2022-09-22T04:24:38.477Z,0
2022-09-22T04:25:39.473Z,0
2022-09-22T04:26:51.724Z,0
2022-09-22T04:27:42.395Z,0
2022-09-22T04:28:43.393Z,0
2022-09-22T04:29:44.372Z,0
2022-09-22T04:30:45.463Z,0
2022-09-22T04:31:46.314Z,0
2022-09-22T04:32:47.414Z,0
2022-09-22T04:33:48.393Z,0
2022-09-22T04:34:49.353Z,0
2022-09-22T04:35:50.334Z,0
2022-09-22T04:36:51.353Z,0
2022-09-22T04:37:52.378Z,0
2022-09-22T04:38:53.479Z,0
2022-09-22T04:39:55.436Z,0
2022-09-22T04:40:56.374Z,0
2022-09-22T04:41:57.417Z,0
2022-09-22T04:42:59.515Z,0
2022-09-22T04:44:01.461Z,0
2022-09-22T04:45:02.434Z,0
2022-09-22T04:46:03.569Z,0
2022-09-22T04:47:04.413Z,0
2022-09-22T04:48:05.374Z,0
2022-09-22T04:49:06.353Z,0
2022-09-22T04:50:07.413Z,0
2022-09-22T04:51:08.313Z,0
2022-09-22T04:52:09.413Z,0
2022-09-22T04:53:10.315Z,0
2022-09-22T04:54:11.430Z,0
2022-09-22T04:55:12.417Z,0
2022-09-22T04:56:13.354Z,0
2022-09-22T04:57:18.377Z,0
2022-09-22T04:58:15.739Z,0
2022-09-22T04:59:17.387Z,0
2022-09-22T05:00:18.420Z,0
2022-09-22T05:01:19.479Z,0
2022-09-22T05:02:20.369Z,0
2022-09-22T05:03:22.305Z,0
2022-09-22T05:04:22.435Z,0
2022-09-22T05:05:23.315Z,0.09
2022-09-22T05:06:24.442Z,0.11
2022-09-22T05:07:25.454Z,0.08
2022-09-22T05:08:26.373Z,0
2022-09-22T05:09:27.455Z,0
2022-09-22T05:10:29.434Z,0
2022-09-22T05:11:30.557Z,0
2022-09-22T05:12:32.336Z,0
2022-09-22T05:13:33.350Z,0
2022-09-22T05:14:34.395Z,0
2022-09-22T05:15:35.495Z,0
2022-09-22T05:16:36.495Z,0
2022-09-22T05:17:37.412Z,0
2022-09-22T05:18:38.413Z,0
2022-09-22T05:19:39.497Z,0
2022-09-22T05:20:41.434Z,0
2022-09-22T05:21:42.375Z,0
2022-09-22T05:22:43.393Z,0
2022-09-22T05:23:44.455Z,0
2022-09-22T05:24:45.473Z,0
2022-09-22T05:25:46.478Z,0
2022-09-22T05:26:47.466Z,0
2022-09-22T05:27:49.579Z,0
2022-09-22T05:28:51.516Z,0
2022-09-22T05:29:53.436Z,0
2022-09-22T05:30:54.493Z,0.09
2022-09-22T05:31:56.550Z,0.05
2022-09-22T05:32:58.354Z,0
2022-09-22T05:33:59.353Z,0.08
2022-09-22T05:35:00.398Z,0.06
2022-09-22T05:36:01.333Z,0
2022-09-22T05:37:02.455Z,0
2022-09-22T05:38:03.375Z,0
2022-09-22T05:39:04.393Z,0
2022-09-22T05:40:05.430Z,0
2022-09-22T05:41:06.379Z,0
2022-09-22T05:42:10.832Z,0
2022-09-22T05:43:08.333Z,0
2022-09-22T05:44:09.416Z,0
2022-09-22T05:45:10.373Z,0
2022-09-22T05:46:11.453Z,0
2022-09-22T05:47:12.393Z,0
2022-09-22T05:48:13.413Z,0
2022-09-22T05:49:14.405Z,0
2022-09-22T05:50:15.917Z,0
2022-09-22T05:51:17.483Z,0
2022-09-22T05:52:18.443Z,0
2022-09-22T05:53:19.397Z,0
2022-09-22T05:54:23.312Z,0
2022-09-22T05:55:21.440Z,0
2022-09-22T05:56:22.480Z,0
2022-09-22T05:57:23.473Z,0
2022-09-22T05:58:24.394Z,0
2022-09-22T05:59:25.374Z,0
2022-09-22T06:00:26.444Z,0
2022-09-22T06:01:27.542Z,0
2022-09-22T06:02:28.493Z,0
2022-09-22T06:03:29.398Z,0
2022-09-22T06:04:30.493Z,0
2022-09-22T06:05:31.380Z,0
2022-09-22T06:06:32.395Z,0
2022-09-22T06:07:33.415Z,0
2022-09-22T06:08:34.394Z,0
2022-09-22T06:09:35.461Z,0
2022-09-22T06:10:36.413Z,0
2022-09-22T06:11:37.522Z,0
2022-09-22T06:12:38.454Z,0.28
2022-09-22T06:13:39.434Z,0.23
2022-09-22T06:14:40.435Z,0
2022-09-22T06:15:41.433Z,0
2022-09-22T06:16:42.439Z,0
2022-09-22T06:17:43.457Z,0
2022-09-22T06:18:44.415Z,0
2022-09-22T06:19:45.375Z,0
2022-09-22T06:20:46.416Z,0
2022-09-22T06:21:47.395Z,0
2022-09-22T06:22:51.419Z,0
2022-09-22T06:23:52.413Z,0
2022-09-22T06:24:53.435Z,0
2022-09-22T06:25:54.436Z,0
2022-09-22T06:26:55.459Z,0
2022-09-22T06:27:56.394Z,0
2022-09-22T06:28:57.392Z,0
2022-09-22T06:29:58.400Z,0
2022-09-22T06:30:59.476Z,0
2022-09-22T06:32:00.526Z,0
2022-09-22T06:33:01.352Z,0
2022-09-22T06:34:06.888Z,0
2022-09-22T06:35:03.480Z,0
2022-09-22T06:36:04.435Z,0
2022-09-22T06:37:05.450Z,0
2022-09-22T06:38:06.522Z,0.08
2022-09-22T06:39:07.602Z,0
2022-09-22T06:40:11.929Z,0
2022-09-22T06:41:10.517Z,0
2022-09-22T06:42:11.468Z,0
2022-09-22T06:43:12.453Z,0
2022-09-22T06:44:13.304Z,0
2022-09-22T06:45:14.560Z,0
2022-09-22T06:46:16.649Z,0
2022-09-22T06:47:18.603Z,0
2022-09-22T06:48:20.535Z,0
2022-09-22T06:49:21.581Z,0
2022-09-22T06:50:23.545Z,0.12
2022-09-22T06:51:24.498Z,0
2022-09-22T06:52:25.634Z,0.23
2022-09-22T06:53:27.732Z,0.1
2022-09-22T06:54:28.392Z,0.1
2022-09-22T06:55:29.662Z,0
2022-09-22T06:56:34.106Z,0
2022-09-22T06:57:33.665Z,0
2022-09-22T06:58:47.140Z,0
2022-09-22T06:59:36.500Z,0
2022-09-22T07:00:37.597Z,0
2022-09-22T07:01:38.679Z,0
2022-09-22T07:02:40.516Z,0
2022-09-22T07:03:41.513Z,0
2022-09-22T07:04:42.555Z,0
2022-09-22T07:05:43.494Z,0
2022-09-22T07:06:44.593Z,0
2022-09-22T07:07:46.540Z,0
2022-09-22T07:08:47.503Z,0
2022-09-22T07:09:48.475Z,0
2022-09-22T07:10:49.523Z,0
2022-09-22T07:11:50.642Z,0
2022-09-22T07:12:52.568Z,0
2022-09-22T07:13:54.490Z,0
2022-09-22T07:14:55.613Z,0.15
2022-09-22T07:15:57.810Z,0.09
2022-09-22T07:16:59.478Z,0
2022-09-22T07:18:00.480Z,0
2022-09-22T07:19:01.453Z,0
2022-09-22T07:20:02.591Z,0
2022-09-22T07:21:04.454Z,0
2022-09-22T07:22:05.481Z,0
2022-09-22T07:23:06.493Z,0
2022-09-22T07:24:07.817Z,0
2022-09-22T07:25:09.639Z,0
2022-09-22T07:26:11.574Z,0
2022-09-22T07:27:13.493Z,0
2022-09-22T07:28:14.463Z,0
2022-09-22T07:29:15.973Z,0.37
2022-09-22T07:30:17.454Z,0.44
2022-09-22T07:31:18.549Z,0.23
2022-09-22T07:32:19.472Z,0.66
2022-09-22T07:33:20.433Z,0.4
2022-09-22T07:34:21.511Z,0.17
2022-09-22T07:35:22.494Z,0.18
2022-09-22T07:36:23.533Z,0.22
2022-09-22T07:37:24.463Z,0.1
2022-09-22T07:38:25.674Z,0.3
2022-09-22T07:39:27.494Z,0.5
2022-09-22T07:40:28.469Z,0.22
2022-09-22T07:41:29.453Z,0.23
2022-09-22T07:42:30.538Z,0.23
2022-09-22T07:43:31.458Z,0.29
2022-09-22T07:44:32.598Z,0.33
2022-09-22T07:45:33.434Z,0
2022-09-22T07:46:34.538Z,0.34
2022-09-22T07:47:35.502Z,0.2
2022-09-22T07:48:36.563Z,0.3
2022-09-22T07:49:37.555Z,0.21
2022-09-22T07:50:38.533Z,0.24
2022-09-22T07:51:39.553Z,0.84
2022-09-22T07:52:40.454Z,0.77
2022-09-22T07:53:41.535Z,0.66
2022-09-22T07:54:42.576Z,0.91
2022-09-22T07:55:43.513Z,0.89
2022-09-22T07:56:44.453Z,1.02
2022-09-22T07:57:45.454Z,0.68
2022-09-22T07:58:46.507Z,0.92
2022-09-22T07:59:47.501Z,0.72
2022-09-22T08:00:48.535Z,0.72
2022-09-22T08:01:49.546Z,0.61
2022-09-22T08:02:50.453Z,0.69
2022-09-22T08:03:51.533Z,0.39
2022-09-22T08:04:52.453Z,0.21
2022-09-22T08:05:53.454Z,0.56
2022-09-22T08:06:54.457Z,1.1
2022-09-22T08:07:55.419Z,0.88
2022-09-22T08:08:56.573Z,0.16
2022-09-22T08:09:57.573Z,0.09
2022-09-22T08:10:59.573Z,0.85
2022-09-22T08:12:00.576Z,0.19
2022-09-22T08:13:01.493Z,0
2022-09-22T08:14:02.558Z,0
2022-09-22T08:15:03.553Z,0
2022-09-22T08:16:04.590Z,0
2022-09-22T08:17:05.453Z,0.33
2022-09-22T08:18:06.533Z,0
2022-09-22T08:19:07.553Z,0
2022-09-22T08:20:08.519Z,0
2022-09-22T08:21:09.493Z,0.22
2022-09-22T08:22:10.595Z,0.32
2022-09-22T08:23:11.398Z,0.19
2022-09-22T08:24:12.473Z,0.28
2022-09-22T08:25:13.453Z,0.07
2022-09-22T08:26:14.473Z,0
2022-09-22T08:27:16.135Z,0
2022-09-22T08:28:17.515Z,0.13
2022-09-22T08:29:18.479Z,0.2
2022-09-22T08:30:19.665Z,0.18
2022-09-22T08:31:20.614Z,0.52
2022-09-22T08:32:21.652Z,0.82
2022-09-22T08:33:23.572Z,0.58
2022-09-22T08:34:24.482Z,0
2022-09-22T08:35:25.493Z,0
2022-09-22T08:36:26.575Z,0
2022-09-22T08:37:27.513Z,0.17
2022-09-22T08:38:28.513Z,0
2022-09-22T08:39:29.453Z,0.55
2022-09-22T08:40:30.679Z,0.57
2022-09-22T08:41:31.517Z,1.07
2022-09-22T08:42:32.475Z,0.32
2022-09-22T08:43:33.513Z,0
2022-09-22T08:44:34.567Z,0.18
2022-09-22T08:45:35.593Z,0.24
2022-09-22T08:46:36.628Z,0.19
2022-09-22T08:47:37.573Z,0.31
2022-09-22T08:48:38.574Z,0.31
2022-09-22T08:49:39.416Z,0.08
2022-09-22T08:50:40.516Z,0
2022-09-22T08:51:41.494Z,0.28
2022-09-22T08:52:42.517Z,0.9
2022-09-22T08:53:43.614Z,0.48
2022-09-22T08:54:44.495Z,0.54
2022-09-22T08:55:45.533Z,1.42
2022-09-22T08:56:46.562Z,1.37
2022-09-22T08:57:47.541Z,1.42
2022-09-22T08:58:48.439Z,0.77
2022-09-22T08:59:49.545Z,0.78
2022-09-22T09:00:50.535Z,0.25
2022-09-22T09:01:51.624Z,0.62
2022-09-22T09:02:52.661Z,1.14
2022-09-22T09:03:53.486Z,0.71
2022-09-22T09:04:54.554Z,0.54
2022-09-22T09:05:55.431Z,0
2022-09-22T09:06:56.795Z,0
2022-09-22T09:07:58.536Z,0
2022-09-22T09:09:04.103Z,0
2022-09-22T09:10:00.515Z,0.12
2022-09-22T09:11:01.512Z,0.74
2022-09-22T09:12:02.520Z,0.43
2022-09-22T09:13:03.714Z,1.01
2022-09-22T09:14:05.656Z,0.9
2022-09-22T09:15:06.658Z,0.53
2022-09-22T09:16:07.625Z,0.09
2022-09-22T09:17:08.515Z,0
2022-09-22T09:18:09.574Z,0.19
2022-09-22T09:19:10.521Z,0.18
2022-09-22T09:20:11.573Z,0.46
2022-09-22T09:21:12.536Z,0.32
2022-09-22T09:22:13.523Z,0.35
2022-09-22T09:23:14.515Z,0
2022-09-22T09:25:27.045Z,0.39
2022-09-22T09:26:19.414Z,0.41
2022-09-22T09:27:20.549Z,0.14
2022-09-22T09:28:25.496Z,0.43
2022-09-22T09:29:22.515Z,0.22
2022-09-22T09:30:23.617Z,0.15
2022-09-22T09:31:24.638Z,1.25
2022-09-22T09:32:25.534Z,1.63
2022-09-22T09:33:26.614Z,1.38
2022-09-22T09:34:28.553Z,1.27
2022-09-22T09:35:29.493Z,0.75
2022-09-22T09:36:30.554Z,0.32
2022-09-22T09:37:31.502Z,1.51
2022-09-22T09:38:32.513Z,0.65
2022-09-22T09:39:33.578Z,1.12
2022-09-22T09:40:34.541Z,0.29
2022-09-22T09:41:35.524Z,0.92
2022-09-22T09:42:36.513Z,1.82
2022-09-22T09:43:37.581Z,0.55
2022-09-22T09:44:38.541Z,0.35
2022-09-22T09:45:39.568Z,0.19
2022-09-22T09:46:40.622Z,0.49
2022-09-22T09:47:41.537Z,0.74
2022-09-22T09:48:42.633Z,0.31
2022-09-22T09:49:43.553Z,0.39
2022-09-22T09:50:44.453Z,0.08
2022-09-22T09:51:45.514Z,0.27
2022-09-22T09:52:46.493Z,0.08
2022-09-22T09:53:47.585Z,0.19
2022-09-22T09:54:48.534Z,0.31
2022-09-22T09:55:49.634Z,0.21
2022-09-22T09:56:50.562Z,1.16
2022-09-22T09:57:51.593Z,0.29
2022-09-22T09:58:52.575Z,0.48
2022-09-22T09:59:53.532Z,0.5
2022-09-22T10:00:54.658Z,0.31
2022-09-22T10:01:55.598Z,0
2022-09-22T10:02:56.593Z,0
2022-09-22T10:03:57.573Z,0.75
2022-09-22T10:04:58.544Z,0.26
2022-09-22T10:05:59.571Z,0.27
2022-09-22T10:07:01.351Z,0.5
2022-09-22T10:08:01.574Z,0.45
2022-09-22T10:09:02.635Z,0
2022-09-22T10:10:03.573Z,0.27
2022-09-22T10:11:04.577Z,0.25
2022-09-22T10:12:05.499Z,0.29
2022-09-22T10:13:06.554Z,0.24
2022-09-22T10:14:07.641Z,1.03
2022-09-22T10:15:08.643Z,0.91
2022-09-22T10:16:09.665Z,1.15
2022-09-22T10:17:10.540Z,0.93
2022-09-22T10:18:11.573Z,0.64
2022-09-22T10:19:12.534Z,0.15
2022-09-22T10:20:13.719Z,0
2022-09-22T10:21:15.520Z,0.24
2022-09-22T10:22:16.682Z,0.54
2022-09-22T10:23:17.595Z,0.06
2022-09-22T10:24:18.613Z,0.26
2022-09-22T10:25:19.674Z,0.38
2022-09-22T10:26:20.595Z,0.2
2022-09-22T10:27:21.664Z,1.2
2022-09-22T10:28:23.712Z,0.88
2022-09-22T10:29:25.654Z,0.47
2022-09-22T10:30:27.753Z,1.13
2022-09-22T10:31:29.645Z,1
2022-09-22T10:32:30.640Z,0.34
2022-09-22T10:33:31.541Z,0.56
2022-09-22T10:34:32.786Z,0.29
2022-09-22T10:35:34.614Z,0.47
2022-09-22T10:36:35.574Z,0.14
2022-09-22T10:37:36.669Z,0.24
2022-09-22T10:38:37.702Z,0.15
2022-09-22T10:39:44.573Z,0.29
2022-09-22T10:40:45.647Z,0.45
2022-09-22T10:41:46.676Z,0.37
2022-09-22T10:42:47.585Z,0.34
2022-09-22T10:43:48.585Z,0.34
2022-09-22T10:44:49.578Z,0.97
2022-09-22T10:45:50.711Z,0.94
2022-09-22T10:46:51.617Z,1.28
2022-09-22T10:47:52.554Z,0.36
2022-09-22T10:48:53.614Z,0.17
2022-09-22T10:49:54.553Z,0.29
2022-09-22T10:50:55.607Z,0.36
2022-09-22T10:51:56.884Z,1.06
2022-09-22T10:52:58.653Z,0.79
2022-09-22T10:54:00.595Z,0.24
2022-09-22T10:55:01.534Z,0.47
2022-09-22T10:56:02.553Z,0.54
2022-09-22T10:57:03.615Z,0.68
2022-09-22T10:58:04.633Z,0.17
2022-09-22T10:59:05.593Z,0.31
2022-09-22T11:00:06.662Z,0.57
2022-09-22T11:01:07.658Z,0.19
2022-09-22T11:02:08.602Z,0.5
2022-09-22T11:03:09.602Z,0.28
2022-09-22T11:04:10.747Z,0.25
2022-09-22T11:05:11.594Z,0.37
2022-09-22T11:06:12.679Z,0.23
2022-09-22T11:07:14.683Z,0.34
2022-09-22T11:08:15.553Z,0.63
2022-09-22T11:09:16.753Z,0.15
2022-09-22T11:10:18.662Z,0.6
2022-09-22T11:11:19.561Z,0.54
2022-09-22T11:12:20.636Z,0.07
2022-09-22T11:13:21.633Z,0.32
2022-09-22T11:14:22.674Z,0.27
2022-09-22T11:15:23.680Z,0.78
2022-09-22T11:16:24.542Z,0.22
2022-09-22T11:17:25.597Z,0.23
2022-09-22T11:18:26.673Z,0.5
2022-09-22T11:19:28.693Z,0.44
2022-09-22T11:20:30.553Z,0.48
2022-09-22T11:21:31.604Z,0.08
2022-09-22T11:22:32.576Z,0.56
2022-09-22T11:23:33.533Z,0.93
2022-09-22T11:24:34.621Z,0.6
2022-09-22T11:25:35.520Z,0.34
2022-09-22T11:26:36.741Z,0.39
2022-09-22T11:27:38.656Z,0.33
2022-09-22T11:28:39.559Z,0.17
2022-09-22T11:29:40.594Z,0.08
2022-09-22T11:30:41.682Z,0.29
2022-09-22T11:31:42.636Z,0.13
2022-09-22T11:32:43.606Z,0.34
2022-09-22T11:33:44.699Z,0.31
2022-09-22T11:34:45.614Z,0.54
2022-09-22T11:35:46.591Z,0.26
2022-09-22T11:36:51.376Z,0.78
2022-09-22T11:37:48.615Z,0.64
2022-09-22T11:38:49.595Z,0.12
2022-09-22T11:39:50.624Z,0.3
2022-09-22T11:40:51.753Z,1.45
2022-09-22T11:41:52.742Z,2.44
2022-09-22T11:42:53.552Z,1.22
2022-09-22T11:43:55.763Z,1.38
2022-09-22T11:44:56.753Z,0.99
2022-09-22T11:45:58.829Z,1.32
2022-09-22T11:47:00.574Z,0.76
2022-09-22T11:48:01.590Z,0.56
2022-09-22T11:49:02.613Z,1.48
2022-09-22T11:50:03.634Z,1.69
2022-09-22T11:51:04.673Z,1.19
2022-09-22T11:52:05.661Z,0.31
2022-09-22T11:53:06.653Z,0.82
2022-09-22T11:54:07.615Z,0.35
2022-09-22T11:55:08.655Z,0.18
2022-09-22T11:56:09.593Z,0.42
2022-09-22T11:57:10.633Z,1.61
2022-09-22T11:58:11.653Z,1.19
2022-09-22T11:59:12.653Z,1.52
2022-09-22T12:00:13.694Z,0.88
2022-09-22T12:01:14.633Z,1.43
2022-09-22T12:02:15.745Z,0.33
2022-09-22T12:03:16.828Z,0.92
2022-09-22T12:04:17.713Z,0.6
2022-09-22T12:05:18.661Z,0.14
2022-09-22T12:06:19.681Z,0.25
2022-09-22T12:07:20.642Z,0.3
2022-09-22T12:08:21.702Z,0.26
2022-09-22T12:09:22.654Z,0.13
2022-09-22T12:10:23.613Z,0.99
2022-09-22T12:11:24.565Z,0.79
2022-09-22T12:12:25.653Z,0.68
2022-09-22T12:13:26.693Z,0.81
2022-09-22T12:14:27.739Z,0.38
2022-09-22T12:15:28.654Z,0.14
2022-09-22T12:16:29.599Z,0.22
2022-09-22T12:17:30.675Z,0.23
2022-09-22T12:18:31.672Z,0.27
2022-09-22T12:19:32.576Z,0.12
2022-09-22T12:20:33.597Z,0.8
2022-09-22T12:21:34.593Z,0.7
2022-09-22T12:22:35.653Z,1.1
2022-09-22T12:23:36.773Z,0.29
2022-09-22T12:24:38.701Z,0.55
2022-09-22T12:25:47.773Z,0.86
2022-09-22T12:26:40.674Z,0.82
2022-09-22T12:27:41.734Z,0.21
2022-09-22T12:28:42.674Z,1
2022-09-22T12:29:43.674Z,0.25
2022-09-22T12:30:44.741Z,1.21
2022-09-22T12:31:46.613Z,2.31
2022-09-22T12:32:47.694Z,1.65
2022-09-22T12:33:48.680Z,1.84
2022-09-22T12:34:49.634Z,0.59
2022-09-22T12:35:50.693Z,0.18
2022-09-22T12:36:51.653Z,0.78
2022-09-22T12:37:52.614Z,0.85
2022-09-22T12:38:53.655Z,0
2022-09-22T12:39:54.614Z,0
2022-09-22T12:40:55.654Z,0.05
2022-09-22T12:41:57.757Z,0.37
2022-09-22T12:42:58.733Z,0
2022-09-22T12:44:00.613Z,0
2022-09-22T12:45:01.673Z,0
2022-09-22T12:46:02.750Z,0.13
2022-09-22T12:47:03.609Z,0
2022-09-22T12:48:05.773Z,0
2022-09-22T12:49:05.765Z,0
2022-09-22T12:50:06.773Z,0.52
2022-09-22T12:51:08.673Z,0.54
2022-09-22T12:52:09.613Z,0.36
2022-09-22T12:53:10.674Z,0.42
2022-09-22T12:54:11.636Z,0.4
2022-09-22T12:55:12.900Z,0.56
2022-09-22T12:56:14.835Z,0.44
2022-09-22T12:57:16.713Z,0.43
2022-09-22T12:58:17.673Z,1.16
2022-09-22T12:59:18.633Z,0.46
2022-09-22T13:00:19.635Z,0.08
2022-09-22T13:01:20.798Z,0.96
2022-09-22T13:02:21.710Z,0.47
2022-09-22T13:03:22.787Z,0.9
2022-09-22T13:04:24.801Z,0.3
2022-09-22T13:05:26.678Z,0.39
2022-09-22T13:06:27.635Z,0.24
2022-09-22T13:07:28.796Z,0.07
2022-09-22T13:08:30.695Z,0.25
2022-09-22T13:09:31.654Z,0.07
2022-09-22T13:10:32.836Z,0.38
2022-09-22T13:11:34.593Z,0.36
2022-09-22T13:12:35.554Z,0.73
2022-09-22T13:13:36.701Z,0.91
2022-09-22T13:14:37.614Z,0.2
2022-09-22T13:15:38.674Z,0
2022-09-22T13:16:39.673Z,0.17
2022-09-22T13:17:43.777Z,0.99
2022-09-22T13:18:45.719Z,0.23
2022-09-22T13:19:46.782Z,0.19
2022-09-22T13:20:47.653Z,0.05
2022-09-22T13:21:48.633Z,0.61
2022-09-22T13:22:49.693Z,0.22
2022-09-22T13:23:50.654Z,0.23
2022-09-22T13:24:51.677Z,0.08
2022-09-22T13:25:52.934Z,0.29
2022-09-22T13:26:54.778Z,0.14
2022-09-22T13:27:56.655Z,0.21
2022-09-22T13:28:57.861Z,0.18
2022-09-22T13:29:59.794Z,0.77
2022-09-22T13:31:02.157Z,0.19
2022-09-22T13:32:02.635Z,1.42
2022-09-22T13:33:03.676Z,0.37
2022-09-22T13:34:04.659Z,0.22
2022-09-22T13:35:05.736Z,0.6
2022-09-22T13:36:06.613Z,0.5
2022-09-22T13:37:07.712Z,0.49
2022-09-22T13:38:08.737Z,0.23
2022-09-22T13:39:09.616Z,0
2022-09-22T13:40:10.773Z,0.07
2022-09-22T13:41:11.654Z,0.39
2022-09-22T13:42:12.614Z,0.37
2022-09-22T13:43:13.637Z,0
2022-09-22T13:44:14.527Z,0.31
2022-09-22T13:45:15.694Z,0.26
2022-09-22T13:46:16.755Z,0.08
2022-09-22T13:47:17.843Z,0.67
2022-09-22T13:48:19.975Z,0.1
2022-09-22T13:49:21.894Z,0.47
2022-09-22T13:50:24.021Z,1.47
2022-09-22T13:51:25.679Z,1.13
2022-09-22T13:52:26.712Z,0.68
2022-09-22T13:53:27.713Z,0.16
2022-09-22T13:54:28.693Z,0.24
2022-09-22T13:55:29.893Z,0.07
2022-09-22T13:56:31.653Z,0.11
2022-09-22T13:57:32.609Z,0.47
2022-09-22T13:58:33.694Z,0.75
2022-09-22T13:59:34.742Z,0
2022-09-22T14:00:45.013Z,0.23
2022-09-22T14:01:36.805Z,0.27
2022-09-22T14:02:38.208Z,0.65
2022-09-22T14:03:40.124Z,0.44
2022-09-22T14:04:41.714Z,0.15
2022-09-22T14:05:53.117Z,0.72
2022-09-22T14:06:44.695Z,0.77
2022-09-22T14:08:01.223Z,0.21
2022-09-22T14:08:46.673Z,0.51
2022-09-22T14:09:47.673Z,0.16
2022-09-22T14:10:48.722Z,0.19
2022-09-22T14:11:49.673Z,1.54
2022-09-22T14:12:50.733Z,1.28
2022-09-22T14:13:51.718Z,0.44
2022-09-22T14:14:52.681Z,0.07
2022-09-22T14:15:53.673Z,0.28
2022-09-22T14:16:54.780Z,0
2022-09-22T14:17:55.697Z,0.17
2022-09-22T14:18:56.881Z,1.5
2022-09-22T14:19:58.795Z,0.58
2022-09-22T14:21:00.861Z,0.21
2022-09-22T14:22:01.714Z,0.28
2022-09-22T14:23:02.795Z,0.26
2022-09-22T14:24:03.674Z,0.34
2022-09-22T14:25:04.679Z,0.56
2022-09-22T14:26:05.724Z,0.68